Time;durP1;ratioP1;P1;durP2;ratioP2;P2;SDS_P1;SDS_P2;PMS_P1;PMS_P2;Temp;Humidity;BMP_temperature;BMP_pressure;BME280_temperature;BME280_humidity;BME280_pressure;Samples;Min_cycle;Max_cycle;Signal;HPM_P1;HPM_P2
2020/12/09 00:00:07;;;;;;;7.68;2.50;;;;;;;;;;4364345;32;20433;-77
2020/12/09 00:02:37;;;;;;;2.55;2.35;;;;;;;;;;4360011;32;20119;-76
2020/12/09 00:05:08;;;;;;;3.78;2.10;;;;;;;;;;4368695;32;20102;-78
2020/12/09 00:07:37;;;;;;;4.70;2.33;;;;;;;;;;4368980;32;20121;-77
2020/12/09 00:10:07;;;;;;;4.03;1.80;;;;;;;;;;4354134;32;20249;-77
2020/12/09 00:12:37;;;;;;;4.55;2.35;;;;;;;;;;4361261;32;20060;-76
2020/12/09 00:15:08;;;;;;;4.43;2.20;;;;;;;;;;4351027;32;20062;-77
2020/12/09 00:17:37;;;;;;;5.15;1.80;;;;;;;;;;4362290;32;20120;-77
2020/12/09 00:20:05;;;;;;;6.10;2.40;;;;;;;;;;4361030;32;20433;-78
2020/12/09 00:22:35;;;;;;;3.03;2.08;;;;;;;;;;4338059;32;20124;-77
2020/12/09 00:25:05;;;;;;;2.72;2.40;;;;;;;;;;4351076;32;20048;-77
2020/12/09 00:27:34;;;;;;;7.80;2.70;;;;;;;;;;4338541;32;20122;-77
2020/12/09 00:30:07;;;;;;;4.85;2.20;;;;;;;;;;4353604;32;20059;-78
2020/12/09 00:32:35;;;;;;;4.82;2.60;;;;;;;;;;4352816;32;20997;-77
2020/12/09 00:35:05;;;;;;;3.67;2.20;;;;;;;;;;4345862;32;20098;-77
2020/12/09 00:37:34;;;;;;;2.67;2.42;;;;;;;;;;4349663;32;20153;-77
2020/12/09 00:40:04;;;;;;;5.32;2.65;;;;;;;;;;4355205;32;20095;-77
2020/12/09 00:42:34;;;;;;;6.65;2.58;;;;;;;;;;4357625;32;20082;-78
2020/12/09 00:45:02;;;;;;;2.22;2.05;;;;;;;;;;4345760;32;20531;-77
2020/12/09 00:47:31;;;;;;;5.03;2.85;;;;;;;;;;4363421;32;20116;-77
2020/12/09 00:52:41;;;;;;;2.87;2.37;;;;;;;;;;4363332;32;20444;-78
2020/12/09 00:55:11;;;;;;;5.40;2.30;;;;;;;;;;4361225;32;20048;-77
2020/12/09 00:57:42;;;;;;;2.83;2.40;;;;;;;;;;4353924;32;20238;-77
2020/12/09 01:00:12;;;;;;;6.78;1.60;;;;;;;;;;4343755;32;20063;-77
2020/12/09 01:02:42;;;;;;;4.05;1.50;;;;;;;;;;4362452;32;20086;-77
2020/12/09 01:05:14;;;;;;;6.50;1.20;;;;;;;;;;4343833;32;20709;-77
2020/12/09 01:07:43;;;;;;;0.88;0.52;;;;;;;;;;4348632;32;20658;-77
2020/12/09 01:10:12;;;;;;;2.40;1.42;;;;;;;;;;4353337;32;20061;-78
2020/12/09 01:12:42;;;;;;;3.42;3.12;;;;;;;;;;4357043;32;20043;-77
2020/12/09 01:15:10;;;;;;;6.07;3.45;;;;;;;;;;4360994;32;20098;-77
2020/12/09 01:17:39;;;;;;;3.58;3.37;;;;;;;;;;4354323;32;20132;-77
2020/12/09 01:20:08;;;;;;;6.20;3.30;;;;;;;;;;4358208;32;20442;-77
2020/12/09 01:22:36;;;;;;;3.65;3.37;;;;;;;;;;4354738;32;20051;-77
2020/12/09 01:25:05;;;;;;;5.28;4.95;;;;;;;;;;4352641;32;20758;-77
2020/12/09 01:27:34;;;;;;;5.85;5.22;;;;;;;;;;4349800;32;21165;-77
2020/12/09 01:30:03;;;;;;;3.70;3.50;;;;;;;;;;4343740;32;21301;-77
2020/12/09 01:32:32;;;;;;;4.25;4.00;;;;;;;;;;4354352;32;20203;-77
2020/12/09 01:35:01;;;;;;;5.20;4.70;;;;;;;;;;4365034;32;20416;-77
2020/12/09 01:37:30;;;;;;;10.73;4.50;;;;;;;;;;4341654;32;20060;-77
2020/12/09 01:39:59;;;;;;;9.20;4.28;;;;;;;;;;4347173;32;20087;-78
2020/12/09 01:42:27;;;;;;;6.57;3.97;;;;;;;;;;4340270;32;20107;-78
2020/12/09 01:44:56;;;;;;;3.78;1.52;;;;;;;;;;4337674;32;20111;-78
2020/12/09 01:47:25;;;;;;;3.67;1.98;;;;;;;;;;4342004;32;20521;-76
2020/12/09 01:49:54;;;;;;;3.25;1.70;;;;;;;;;;4342672;32;20101;-77
2020/12/09 01:52:23;;;;;;;6.37;2.67;;;;;;;;;;4350843;32;20037;-77
2020/12/09 01:54:55;;;;;;;2.37;1.58;;;;;;;;;;4349777;32;20109;-77
2020/12/09 01:57:24;;;;;;;6.00;5.00;;;;;;;;;;4342308;32;20514;-77
2020/12/09 01:59:53;;;;;;;5.18;4.40;;;;;;;;;;4345894;32;20032;-77
2020/12/09 02:02:21;;;;;;;5.18;4.47;;;;;;;;;;4349031;32;20064;-78
2020/12/09 02:04:50;;;;;;;5.22;4.07;;;;;;;;;;4345931;32;20386;-77
2020/12/09 02:07:22;;;;;;;4.65;4.32;;;;;;;;;;4342721;32;20090;-77
2020/12/09 02:09:59;;;;;;;7.65;4.05;;;;;;;;;;4334168;32;20130;-77
2020/12/09 02:12:30;;;;;;;5.60;5.10;;;;;;;;;;4351297;32;20052;-77
2020/12/09 02:14:58;;;;;;;10.18;5.15;;;;;;;;;;4350768;32;20243;-77
2020/12/09 02:17:26;;;;;;;5.18;4.82;;;;;;;;;;4348725;32;21393;-77
2020/12/09 02:19:55;;;;;;;4.82;4.50;;;;;;;;;;4354122;32;20055;-77
2020/12/09 02:22:23;;;;;;;4.47;4.18;;;;;;;;;;4353065;32;20375;-77
2020/12/09 02:24:52;;;;;;;4.65;4.35;;;;;;;;;;4347967;32;20074;-77
2020/12/09 02:27:21;;;;;;;6.97;4.55;;;;;;;;;;4346497;32;20469;-77
2020/12/09 02:29:50;;;;;;;6.47;5.37;;;;;;;;;;4354881;32;20086;-77
2020/12/09 02:32:18;;;;;;;4.78;4.40;;;;;;;;;;4346103;32;20103;-77
2020/12/09 02:34:47;;;;;;;7.12;4.57;;;;;;;;;;4349365;32;20068;-78
2020/12/09 02:37:16;;;;;;;5.00;4.18;;;;;;;;;;4366653;32;20051;-78
2020/12/09 02:39:44;;;;;;;6.53;4.72;;;;;;;;;;4370202;32;20122;-77
2020/12/09 02:42:13;;;;;;;5.53;3.90;;;;;;;;;;4368390;32;20364;-77
2020/12/09 02:44:41;;;;;;;5.43;4.30;;;;;;;;;;4371036;32;20047;-77
2020/12/09 02:47:09;;;;;;;5.90;5.28;;;;;;;;;;4366887;32;20103;-77
2020/12/09 02:49:38;;;;;;;5.55;4.78;;;;;;;;;;4369300;32;20051;-77
2020/12/09 02:52:06;;;;;;;4.62;4.32;;;;;;;;;;4368089;32;20484;-78
2020/12/09 02:54:34;;;;;;;4.57;4.35;;;;;;;;;;4372542;32;20074;-77
2020/12/09 02:57:03;;;;;;;5.15;4.70;;;;;;;;;;4364353;32;20124;-78
2020/12/09 02:59:31;;;;;;;4.97;4.68;;;;;;;;;;4368772;32;20042;-78
2020/12/09 03:02:00;;;;;;;5.82;5.30;;;;;;;;;;4373117;32;20055;-77
2020/12/09 03:04:29;;;;;;;5.57;5.12;;;;;;;;;;4370712;32;20107;-77
2020/12/09 03:06:57;;;;;;;5.68;5.25;;;;;;;;;;4370626;32;20105;-77
2020/12/09 03:09:26;;;;;;;5.22;4.72;;;;;;;;;;4374671;32;20077;-77
2020/12/09 03:12:16;;;;;;;4.55;4.15;;;;;;;;;;4388157;27;20129;-93
2020/12/09 03:14:44;;;;;;;5.85;5.28;;;;;;;;;;4352243;32;20067;-92
2020/12/09 03:17:13;;;;;;;5.07;4.60;;;;;;;;;;4355608;32;20114;-93
2020/12/09 03:19:41;;;;;;;6.65;6.10;;;;;;;;;;4358056;32;20135;-93
2020/12/09 03:22:12;;;;;;;5.45;5.00;;;;;;;;;;4345132;32;20047;-92
2020/12/09 03:24:41;;;;;;;5.45;4.50;;;;;;;;;;4339735;32;20543;-92
2020/12/09 03:27:09;;;;;;;5.12;4.80;;;;;;;;;;4330998;32;20067;-93
2020/12/09 03:29:38;;;;;;;5.75;5.35;;;;;;;;;;4339980;32;20222;-90
2020/12/09 03:32:06;;;;;;;6.53;5.95;;;;;;;;;;4337344;32;20118;-91
2020/12/09 03:34:35;;;;;;;5.93;5.68;;;;;;;;;;4333799;32;20091;-91
2020/12/09 03:37:03;;;;;;;6.05;5.75;;;;;;;;;;4356257;32;20032;-93
2020/12/09 03:39:32;;;;;;;8.52;7.80;;;;;;;;;;4342999;32;20071;-92
2020/12/09 03:42:00;;;;;;;6.10;5.70;;;;;;;;;;4334928;33;20088;-94
2020/12/09 03:44:28;;;;;;;6.00;5.40;;;;;;;;;;4345402;33;20067;-91
2020/12/09 03:46:59;;;;;;;8.13;5.90;;;;;;;;;;4350474;32;20075;-94
2020/12/09 03:49:27;;;;;;;5.25;4.85;;;;;;;;;;4337010;32;20357;-93
2020/12/09 03:51:56;;;;;;;5.93;5.62;;;;;;;;;;4347742;32;20457;-94
2020/12/09 03:54:25;;;;;;;5.95;5.65;;;;;;;;;;4347069;32;20129;-94
2020/12/09 03:56:54;;;;;;;11.70;10.98;;;;;;;;;;4348908;32;20083;-94
2020/12/09 03:59:22;;;;;;;10.98;10.15;;;;;;;;;;4348422;33;20070;-92
2020/12/09 04:01:51;;;;;;;3.10;0.73;;;;;;;;;;4349350;33;20082;-93
2020/12/09 04:04:20;;;;;;;3.00;0.75;;;;;;;;;;4336412;33;20067;-92
2020/12/09 04:06:48;;;;;;;2.53;0.77;;;;;;;;;;4348425;33;20060;-92
2020/12/09 04:09:17;;;;;;;9.75;4.47;;;;;;;;;;4349687;33;20060;-92
2020/12/09 04:11:45;;;;;;;4.05;3.40;;;;;;;;;;4349574;33;20114;-94
2020/12/09 04:14:14;;;;;;;3.10;1.62;;;;;;;;;;4337228;33;20052;-93
2020/12/09 04:16:42;;;;;;;9.75;5.30;;;;;;;;;;4330314;33;20056;-92
2020/12/09 04:19:11;;;;;;;5.93;5.32;;;;;;;;;;4341655;33;20068;-93
2020/12/09 04:21:40;;;;;;;5.80;4.20;;;;;;;;;;4347172;33;20545;-94
2020/12/09 04:24:08;;;;;;;4.30;4.10;;;;;;;;;;4328411;33;20068;-93
2020/12/09 04:26:36;;;;;;;3.60;2.53;;;;;;;;;;4334239;33;20052;-93
2020/12/09 04:29:05;;;;;;;8.35;3.85;;;;;;;;;;4327729;33;20088;-92
2020/12/09 04:31:33;;;;;;;6.03;3.53;;;;;;;;;;4343059;33;20074;-94
2020/12/09 04:34:02;;;;;;;6.80;3.92;;;;;;;;;;4342047;33;20099;-92
2020/12/09 04:36:32;;;;;;;5.00;4.00;;;;;;;;;;4331374;33;20079;-94
2020/12/09 04:39:06;;;;;;;7.03;3.53;;;;;;;;;;4342936;32;20064;-93
2020/12/09 04:41:35;;;;;;;6.10;3.60;;;;;;;;;;4331902;33;20145;-93
2020/12/09 04:44:03;;;;;;;6.25;3.42;;;;;;;;;;4345700;33;20134;-92
2020/12/09 04:46:34;;;;;;;3.65;3.42;;;;;;;;;;4366681;32;20132;-93
2020/12/09 04:49:08;;;;;;;10.20;4.78;;;;;;;;;;4345006;33;20040;-94
2020/12/09 04:51:48;;;;;;;5.23;3.80;;;;;;;;;;4361613;33;20103;-92
2020/12/09 04:54:18;;;;;;;5.57;3.90;;;;;;;;;;4361324;32;20036;-93
2020/12/09 04:57:10;;;;;;;11.25;4.10;;;;;;;;;;4347885;32;20067;-92
2020/12/09 04:59:42;;;;;;;10.10;4.25;;;;;;;;;;4339220;32;20037;-92
2020/12/09 05:02:12;;;;;;;3.53;3.33;;;;;;;;;;4345887;32;20052;-93
2020/12/09 05:04:49;;;;;;;9.23;4.53;;;;;;;;;;4357002;32;20079;-92
2020/12/09 05:07:19;;;;;;;7.62;3.90;;;;;;;;;;4354471;33;20155;-93
2020/12/09 05:09:47;;;;;;;4.93;4.50;;;;;;;;;;4339655;33;20028;-93
2020/12/09 05:12:19;;;;;;;6.40;4.30;;;;;;;;;;4338861;33;20106;-92
2020/12/09 05:14:50;;;;;;;4.65;4.37;;;;;;;;;;4352007;32;20063;-94
2020/12/09 05:17:19;;;;;;;4.68;4.28;;;;;;;;;;4332977;32;20101;-92
2020/12/09 05:19:51;;;;;;;5.37;4.87;;;;;;;;;;4344774;32;20157;-93
2020/12/09 05:22:21;;;;;;;5.95;3.53;;;;;;;;;;4346621;32;20052;-92
2020/12/09 05:24:50;;;;;;;4.05;3.67;;;;;;;;;;4328817;32;20268;-92
2020/12/09 05:27:19;;;;;;;5.03;4.18;;;;;;;;;;4337928;32;20070;-93
2020/12/09 05:29:48;;;;;;;4.03;3.70;;;;;;;;;;4320948;32;20088;-94
2020/12/09 05:32:18;;;;;;;3.45;3.20;;;;;;;;;;4328097;32;20083;-92
2020/12/09 05:34:46;;;;;;;3.95;3.55;;;;;;;;;;4339102;32;20111;-92
2020/12/09 05:37:15;;;;;;;5.00;3.78;;;;;;;;;;4351895;32;20114;-92
2020/12/09 05:39:51;;;;;;;7.75;4.20;;;;;;;;;;4340635;32;20063;-91
2020/12/09 05:42:21;;;;;;;4.28;3.85;;;;;;;;;;4344128;32;20106;-94
2020/12/09 05:44:50;;;;;;;6.68;4.32;;;;;;;;;;4343578;33;20068;-91
2020/12/09 05:47:20;;;;;;;3.95;3.37;;;;;;;;;;4348822;32;20100;-92
2020/12/09 05:49:49;;;;;;;3.90;3.70;;;;;;;;;;4334605;33;20420;-95
2020/12/09 05:52:19;;;;;;;4.37;3.67;;;;;;;;;;4343999;33;20108;-93
2020/12/09 05:54:48;;;;;;;5.50;4.60;;;;;;;;;;4343028;33;20097;-92
2020/12/09 05:57:19;;;;;;;8.70;4.68;;;;;;;;;;4331252;33;20047;-92
2020/12/09 05:59:48;;;;;;;5.82;3.35;;;;;;;;;;4344172;33;20078;-93
2020/12/09 06:02:24;;;;;;;2.95;2.70;;;;;;;;;;4342208;33;20086;-93
2020/12/09 06:04:58;;;;;;;2.05;1.85;;;;;;;;;;4342985;33;20528;-93
2020/12/09 06:07:27;;;;;;;2.10;1.95;;;;;;;;;;4353645;32;20102;-92
2020/12/09 06:10:09;;;;;;;6.00;2.15;;;;;;;;;;4346841;32;20100;-93
2020/12/09 06:12:51;;;;;;;4.37;3.05;;;;;;;;;;4340760;33;20059;-93
2020/12/09 06:15:24;;;;;;;4.43;3.25;;;;;;;;;;4351187;32;20127;-93
2020/12/09 06:18:22;;;;;;;4.25;3.60;;;;;;;;;;4327182;33;20138;-92
2020/12/09 06:20:55;;;;;;;3.10;2.90;;;;;;;;;;4334264;32;20090;-92
2020/12/09 06:23:27;;;;;;;5.18;2.85;;;;;;;;;;4350160;32;20095;-93
2020/12/09 06:25:57;;;;;;;19.35;1.70;;;;;;;;;;4340586;32;20488;-92
2020/12/09 06:28:26;;;;;;;6.15;2.40;;;;;;;;;;4336115;32;20099;-93
2020/12/09 06:30:57;;;;;;;3.83;2.53;;;;;;;;;;4328334;32;20099;-93
2020/12/09 06:33:36;;;;;;;2.95;2.30;;;;;;;;;;4349039;32;20482;-94
2020/12/09 06:36:18;;;;;;;4.65;2.33;;;;;;;;;;4338513;32;20076;-92
2020/12/09 06:39:11;;;;;;;4.00;3.20;;;;;;;;;;4351600;32;20432;-94
2020/12/09 06:41:58;;;;;;;2.28;2.17;;;;;;;;;;4340100;33;20529;-93
2020/12/09 06:44:30;;;;;;;2.03;1.02;;;;;;;;;;4340387;33;20638;-93
2020/12/09 06:47:01;;;;;;;1.98;0.77;;;;;;;;;;4342177;33;20128;-91
2020/12/09 06:49:29;;;;;;;4.47;2.25;;;;;;;;;;4351712;32;20073;-94
2020/12/09 06:52:02;;;;;;;3.97;2.03;;;;;;;;;;4343152;32;20408;-94
2020/12/09 06:54:41;;;;;;;4.75;2.08;;;;;;;;;;4353009;32;20080;-91
2020/12/09 06:57:29;;;;;;;2.55;2.35;;;;;;;;;;4331171;33;20095;-95
2020/12/09 07:00:08;;;;;;;3.90;2.00;;;;;;;;;;4331586;32;20152;-93
2020/12/09 07:02:50;;;;;;;4.87;2.40;;;;;;;;;;4344225;33;20515;-94
2020/12/09 07:05:19;;;;;;;5.40;2.78;;;;;;;;;;4338988;33;20067;-93
2020/12/09 07:07:49;;;;;;;2.60;1.77;;;;;;;;;;4329458;32;20186;-93
2020/12/09 07:10:22;;;;;;;1.77;1.67;;;;;;;;;;4344052;32;20174;-93
2020/12/09 07:13:08;;;;;;;3.92;1.83;;;;;;;;;;4337681;32;20834;-93
2020/12/09 07:15:37;;;;;;;2.15;1.80;;;;;;;;;;4352522;32;20128;-93
2020/12/09 07:18:06;;;;;;;1.98;1.60;;;;;;;;;;4337793;32;20098;-91
2020/12/09 07:20:35;;;;;;;8.75;1.83;;;;;;;;;;4351303;32;21658;-93
2020/12/09 07:23:07;;;;;;;1.85;1.75;;;;;;;;;;4337343;32;20173;-92
2020/12/09 07:25:38;;;;;;;7.22;1.73;;;;;;;;;;4350656;32;20072;-92
2020/12/09 07:28:07;;;;;;;3.10;1.70;;;;;;;;;;4317381;32;20075;-91
2020/12/09 07:30:36;;;;;;;7.82;2.20;;;;;;;;;;4329373;32;20156;-92
2020/12/09 07:33:04;;;;;;;3.60;1.83;;;;;;;;;;4336708;32;20040;-91
2020/12/09 07:35:33;;;;;;;2.30;1.83;;;;;;;;;;4342513;32;20156;-92
2020/12/09 07:38:02;;;;;;;2.25;2.05;;;;;;;;;;4335785;32;20067;-92
2020/12/09 07:40:34;;;;;;;4.70;1.87;;;;;;;;;;4349911;32;20099;-91
2020/12/09 07:43:05;;;;;;;7.50;2.40;;;;;;;;;;4350061;33;20487;-91
2020/12/09 07:45:37;;;;;;;13.75;2.72;;;;;;;;;;4351341;32;20060;-90
2020/12/09 07:48:10;;;;;;;2.58;2.00;;;;;;;;;;4339596;33;20520;-92
2020/12/09 07:50:39;;;;;;;6.18;1.87;;;;;;;;;;4339935;33;20393;-92
2020/12/09 07:53:13;;;;;;;4.15;1.83;;;;;;;;;;4356879;32;20101;-92
2020/12/09 07:55:42;;;;;;;3.03;1.45;;;;;;;;;;4348123;32;20076;-92
2020/12/09 07:58:11;;;;;;;6.40;2.37;;;;;;;;;;4338951;32;20107;-92
2020/12/09 08:00:44;;;;;;;2.47;1.70;;;;;;;;;;4338156;32;20617;-90
2020/12/09 08:03:22;;;;;;;5.57;2.80;;;;;;;;;;4352960;32;20139;-91
2020/12/09 08:05:51;;;;;;;4.10;2.53;;;;;;;;;;4341274;32;20525;-91
2020/12/09 08:08:21;;;;;;;6.82;3.08;;;;;;;;;;4341844;32;20545;-92
2020/12/09 08:10:51;;;;;;;4.35;2.45;;;;;;;;;;4339190;32;20070;-93
2020/12/09 08:13:24;;;;;;;3.60;0.85;;;;;;;;;;4355185;32;20078;-92
2020/12/09 08:16:02;;;;;;;11.93;4.37;;;;;;;;;;4340975;33;20074;-92
2020/12/09 08:18:31;;;;;;;3.28;2.97;;;;;;;;;;4339586;33;20479;-93
2020/12/09 08:20:59;;;;;;;3.25;3.05;;;;;;;;;;4351341;32;20118;-92
2020/12/09 08:23:50;;;;;;;4.03;2.58;;;;;;;;;;4358182;32;20074;-91
2020/12/09 08:26:35;;;;;;;2.62;2.40;;;;;;;;;;4357561;32;20060;-93
2020/12/09 08:29:03;;;;;;;;;;;;;;;;;;4333777;32;20109;-93
2020/12/09 08:31:32;;;;;;;4.15;3.75;;;;;;;;;;4343461;32;19947;-94
2020/12/09 08:34:01;;;;;;;2.67;2.37;;;;;;;;;;4356748;32;20199;-93
2020/12/09 08:36:33;;;;;;;4.30;2.70;;;;;;;;;;4342975;33;20473;-93
2020/12/09 08:39:02;;;;;;;6.85;6.35;;;;;;;;;;4357358;32;20064;-93
2020/12/09 08:41:31;;;;;;;3.20;2.90;;;;;;;;;;4341473;33;20100;-90
2020/12/09 08:44:05;;;;;;;1.92;1.42;;;;;;;;;;4356165;32;20123;-90
2020/12/09 08:46:34;;;;;;;4.50;4.10;;;;;;;;;;4333347;33;20059;-90
2020/12/09 08:49:03;;;;;;;6.50;5.90;;;;;;;;;;4331167;33;20563;-91
2020/12/09 08:51:32;;;;;;;5.07;4.78;;;;;;;;;;4329469;33;20049;-91
2020/12/09 08:54:05;;;;;;;4.62;4.30;;;;;;;;;;4357695;32;20133;-91
2020/12/09 08:56:35;;;;;;;7.47;7.03;;;;;;;;;;4354105;32;20091;-91
2020/12/09 08:59:03;;;;;;;7.97;5.78;;;;;;;;;;4353830;32;20064;-91
2020/12/09 09:01:38;;;;;;;6.50;1.20;;;;;;;;;;4354103;32;20040;-90
2020/12/09 09:04:07;;;;;;;1.98;1.87;;;;;;;;;;4335752;33;20062;-90
2020/12/09 09:06:36;;;;;;;20.88;19.87;;;;;;;;;;4328631;33;20121;-91
2020/12/09 09:09:07;;;;;;;13.38;12.70;;;;;;;;;;4354431;32;20459;-89
2020/12/09 09:11:36;;;;;;;15.70;14.80;;;;;;;;;;4326237;33;20087;-92
2020/12/09 09:14:05;;;;;;;0.77;0.50;;;;;;;;;;4337783;33;20052;-90
2020/12/09 09:16:33;;;;;;;0.95;0.80;;;;;;;;;;4329805;33;20079;-90
2020/12/09 09:19:01;;;;;;;1.75;0.70;;;;;;;;;;4317016;33;20055;-89
2020/12/09 09:21:33;;;;;;;10.85;10.23;;;;;;;;;;4352114;32;20095;-89
2020/12/09 09:24:02;;;;;;;0.77;0.70;;;;;;;;;;4342117;33;20063;-88
2020/12/09 09:26:33;;;;;;;3.67;0.75;;;;;;;;;;4339939;33;20405;-88
2020/12/09 09:29:03;;;;;;;0.90;0.80;;;;;;;;;;4353002;33;20457;-87
2020/12/09 09:31:31;;;;;;;3.53;3.33;;;;;;;;;;4328415;33;20535;-88
2020/12/09 09:33:59;;;;;;;4.85;0.80;;;;;;;;;;4350415;32;20098;-89
2020/12/09 09:36:31;;;;;;;3.22;1.08;;;;;;;;;;4354367;32;20105;-88
2020/12/09 09:38:59;;;;;;;14.90;14.20;;;;;;;;;;4341565;33;20068;-89
2020/12/09 09:41:29;;;;;;;1.15;0.90;;;;;;;;;;4342805;33;20063;-89
2020/12/09 09:43:57;;;;;;;7.03;6.70;;;;;;;;;;4338942;33;20109;-88
2020/12/09 09:46:26;;;;;;;4.15;1.00;;;;;;;;;;4341345;33;20542;-88
2020/12/09 09:48:54;;;;;;;1.58;0.90;;;;;;;;;;4343113;33;20064;-88
2020/12/09 09:51:23;;;;;;;19.15;18.23;;;;;;;;;;4339337;33;20174;-89
2020/12/09 09:53:51;;;;;;;36.70;34.78;;;;;;;;;;4322369;33;20091;-88
2020/12/09 09:56:20;;;;;;;14.50;13.70;;;;;;;;;;4340994;33;20059;-90
2020/12/09 09:58:48;;;;;;;13.52;12.93;;;;;;;;;;4329570;33;20115;-90
2020/12/09 10:01:16;;;;;;;0.75;0.40;;;;;;;;;;4355325;32;20523;-89
2020/12/09 10:03:45;;;;;;;1.40;0.45;;;;;;;;;;4354590;32;20055;-89
2020/12/09 10:06:13;;;;;;;3.12;0.73;;;;;;;;;;4352673;33;20089;-88
2020/12/09 10:08:42;;;;;;;3.95;3.37;;;;;;;;;;4343265;32;20641;-91
2020/12/09 10:11:12;;;;;;;2.12;2.03;;;;;;;;;;4341696;33;20113;-91
2020/12/09 10:13:40;;;;;;;2.90;1.00;;;;;;;;;;4325409;32;20128;-90
2020/12/09 10:16:08;;;;;;;8.07;7.65;;;;;;;;;;4329504;33;20110;-92
2020/12/09 10:18:37;;;;;;;14.55;13.85;;;;;;;;;;4352379;32;20056;-93
2020/12/09 10:21:05;;;;;;;18.60;17.65;;;;;;;;;;4329526;33;20071;-92
2020/12/09 10:23:33;;;;;;;3.42;2.83;;;;;;;;;;4341983;32;20449;-92
2020/12/09 10:26:04;;;;;;;14.05;13.25;;;;;;;;;;4354665;32;20072;-92
2020/12/09 10:28:32;;;;;;;11.77;11.12;;;;;;;;;;4354426;32;20102;-93
2020/12/09 10:31:05;;;;;;;2.20;1.00;;;;;;;;;;4352403;33;20131;-94
2020/12/09 10:33:33;;;;;;;1.73;1.23;;;;;;;;;;4339010;33;20060;-94
2020/12/09 10:36:02;;;;;;;4.40;1.02;;;;;;;;;;4329471;32;20085;-93
2020/12/09 10:38:32;;;;;;;9.75;9.20;;;;;;;;;;4341057;33;20122;-92
2020/12/09 10:41:00;;;;;;;10.93;10.32;;;;;;;;;;4343970;32;20374;-93
2020/12/09 10:43:28;;;;;;;3.15;0.70;;;;;;;;;;4339460;32;20098;-94
2020/12/09 10:46:03;;;;;;;1.20;0.80;;;;;;;;;;4331764;33;20409;-91
2020/12/09 10:48:32;;;;;;;2.60;2.40;;;;;;;;;;4340517;33;20083;-92
2020/12/09 10:51:00;;;;;;;3.20;1.17;;;;;;;;;;4339821;33;20568;-94
2020/12/09 10:53:28;;;;;;;45.50;43.22;;;;;;;;;;4326745;33;20130;-93
2020/12/09 10:55:59;;;;;;;1.33;0.65;;;;;;;;;;4330367;32;20797;-92
2020/12/09 10:58:28;;;;;;;2.55;0.88;;;;;;;;;;4339991;33;20408;-94
2020/12/09 11:00:57;;;;;;;4.00;3.70;;;;;;;;;;4336719;33;20218;-93
2020/12/09 11:03:25;;;;;;;1.23;0.80;;;;;;;;;;4341487;33;20392;-93
2020/12/09 11:05:54;;;;;;;26.55;25.02;;;;;;;;;;4338108;33;20060;-93
2020/12/09 11:08:42;;;;;;;4.10;2.20;;;;;;;;;;4342802;33;20758;-92
2020/12/09 11:11:11;;;;;;;8.30;3.70;;;;;;;;;;4328189;33;20111;-92
2020/12/09 11:13:39;;;;;;;17.98;17.05;;;;;;;;;;4328007;33;20063;-92
2020/12/09 11:16:14;;;;;;;1.50;1.50;;;;;;;;;;4337537;33;20405;-92
2020/12/09 11:18:42;;;;;;;2.15;2.00;;;;;;;;;;4350125;32;20071;-93
2020/12/09 11:21:12;;;;;;;16.67;15.82;;;;;;;;;;4352885;32;20477;-92
2020/12/09 11:23:40;;;;;;;5.43;5.07;;;;;;;;;;4357901;32;20044;-93
2020/12/09 11:26:09;;;;;;;7.93;7.53;;;;;;;;;;4343519;33;20142;-93
2020/12/09 11:28:37;;;;;;;3.97;3.67;;;;;;;;;;4342583;32;20106;-93
2020/12/09 11:31:05;;;;;;;4.32;1.10;;;;;;;;;;4343167;33;20068;-93
2020/12/09 11:33:34;;;;;;;18.77;17.70;;;;;;;;;;4332585;33;20416;-93
2020/12/09 11:36:03;;;;;;;30.90;29.25;;;;;;;;;;4344074;33;20055;-92
2020/12/09 11:38:31;;;;;;;3.30;0.60;;;;;;;;;;4353422;33;20110;-92
2020/12/09 11:41:00;;;;;;;4.00;1.10;;;;;;;;;;4355934;33;20051;-93
2020/12/09 11:43:28;;;;;;;0.70;0.70;;;;;;;;;;4357724;32;20114;-92
2020/12/09 11:45:59;;;;;;;1.17;1.08;;;;;;;;;;4358725;32;20480;-92
2020/12/09 11:48:28;;;;;;;1.40;1.30;;;;;;;;;;4343832;32;20102;-93
2020/12/09 11:50:56;;;;;;;2.50;2.40;;;;;;;;;;4352336;32;20099;-93
2020/12/09 11:53:24;;;;;;;3.85;1.37;;;;;;;;;;4342090;33;20094;-92
2020/12/09 11:55:53;;;;;;;2.78;2.58;;;;;;;;;;4340208;32;20078;-91
2020/12/09 11:58:21;;;;;;;3.85;1.40;;;;;;;;;;4344726;33;20059;-93
2020/12/09 12:00:49;;;;;;;6.82;6.32;;;;;;;;;;4339569;33;20110;-93
2020/12/09 12:03:18;;;;;;;1.00;0.90;;;;;;;;;;4337452;33;20103;-93
2020/12/09 12:05:51;;;;;;;9.27;8.90;;;;;;;;;;4343479;33;20102;-89
2020/12/09 12:08:20;;;;;;;6.45;6.05;;;;;;;;;;4345161;33;20089;-93
2020/12/09 12:10:48;;;;;;;1.60;1.12;;;;;;;;;;4331708;33;20052;-92
2020/12/09 12:13:17;;;;;;;2.62;1.25;;;;;;;;;;4344508;33;20083;-93
2020/12/09 12:15:45;;;;;;;4.22;3.83;;;;;;;;;;4349169;32;20060;-91
2020/12/09 12:18:13;;;;;;;4.10;3.90;;;;;;;;;;4355409;33;20043;-92
2020/12/09 12:20:42;;;;;;;4.62;4.43;;;;;;;;;;4352533;32;20094;-93
2020/12/09 12:23:10;;;;;;;4.15;3.85;;;;;;;;;;4323167;33;20056;-93
2020/12/09 12:25:38;;;;;;;8.45;8.05;;;;;;;;;;4356491;32;20048;-93
2020/12/09 12:28:07;;;;;;;3.60;1.00;;;;;;;;;;4357060;32;20114;-92
2020/12/09 12:30:35;;;;;;;3.53;3.20;;;;;;;;;;4354622;33;20075;-93
2020/12/09 12:33:03;;;;;;;3.30;2.25;;;;;;;;;;4361587;27;20086;-77
2020/12/09 12:35:32;;;;;;;1.10;0.90;;;;;;;;;;4368674;32;20055;-76
2020/12/09 12:38:01;;;;;;;5.12;3.30;;;;;;;;;;4369504;32;20070;-76
2020/12/09 12:40:29;;;;;;;4.62;1.05;;;;;;;;;;4362655;32;20059;-77
2020/12/09 12:42:58;;;;;;;1.52;1.12;;;;;;;;;;4371849;32;20047;-78
2020/12/09 12:45:26;;;;;;;2.42;0.93;;;;;;;;;;4372693;32;20468;-76
2020/12/09 12:47:55;;;;;;;4.60;1.83;;;;;;;;;;4369965;32;20099;-78
2020/12/09 12:50:23;;;;;;;3.37;1.23;;;;;;;;;;4363092;32;20400;-76
2020/12/09 12:52:52;;;;;;;2.28;1.02;;;;;;;;;;4364029;32;20485;-77
2020/12/09 12:55:21;;;;;;;0.80;0.80;;;;;;;;;;4364825;32;20056;-77
2020/12/09 12:57:49;;;;;;;3.15;0.93;;;;;;;;;;4364166;32;20484;-77
2020/12/09 13:00:20;;;;;;;2.05;1.20;;;;;;;;;;4352107;32;20481;-77
2020/12/09 13:02:49;;;;;;;2.47;0.90;;;;;;;;;;4354512;32;20075;-76
2020/12/09 13:05:18;;;;;;;0.80;0.50;;;;;;;;;;4368676;32;20106;-77
2020/12/09 13:07:47;;;;;;;1.90;1.20;;;;;;;;;;4366360;32;20055;-77
2020/12/09 13:10:16;;;;;;;0.95;0.60;;;;;;;;;;4350916;32;20067;-77
2020/12/09 13:12:45;;;;;;;1.95;0.75;;;;;;;;;;4365053;32;20134;-77
2020/12/09 13:15:13;;;;;;;1.62;0.70;;;;;;;;;;4361562;32;20075;-77
2020/12/09 13:17:42;;;;;;;1.37;0.80;;;;;;;;;;4369046;32;20059;-76
2020/12/09 13:20:11;;;;;;;3.08;0.88;;;;;;;;;;4368285;32;20052;-77
2020/12/09 13:22:40;;;;;;;4.43;1.33;;;;;;;;;;4369116;32;20043;-77
2020/12/09 13:25:10;;;;;;;3.40;0.80;;;;;;;;;;4368168;32;20156;-76
2020/12/09 13:27:39;;;;;;;1.17;0.68;;;;;;;;;;4355805;32;20457;-77
2020/12/09 13:30:08;;;;;;;1.20;0.57;;;;;;;;;;4363135;32;20051;-77
2020/12/09 13:32:37;;;;;;;3.30;0.90;;;;;;;;;;4365780;32;20142;-77
2020/12/09 13:35:06;;;;;;;1.60;0.60;;;;;;;;;;4363395;32;20087;-76
2020/12/09 13:37:34;;;;;;;3.35;0.90;;;;;;;;;;4367725;32;20090;-78
2020/12/09 13:40:03;;;;;;;1.77;0.80;;;;;;;;;;4364273;32;20373;-76
2020/12/09 13:42:32;;;;;;;3.55;1.02;;;;;;;;;;4367342;32;20055;-77
2020/12/09 13:45:01;;;;;;;2.97;0.70;;;;;;;;;;4364504;32;20060;-77
2020/12/09 13:47:30;;;;;;;4.18;1.10;;;;;;;;;;4364402;32;20051;-76
2020/12/09 13:49:59;;;;;;;1.83;0.77;;;;;;;;;;4362634;32;20129;-77
2020/12/09 13:52:27;;;;;;;3.55;0.70;;;;;;;;;;4367629;32;20391;-77
2020/12/09 13:54:56;;;;;;;1.92;0.88;;;;;;;;;;4367491;32;20555;-77
2020/12/09 13:57:25;;;;;;;1.15;0.60;;;;;;;;;;4363942;32;20071;-77
2020/12/09 13:59:53;;;;;;;0.60;0.50;;;;;;;;;;4360276;32;20430;-76
2020/12/09 14:02:21;;;;;;;2.22;0.80;;;;;;;;;;4349371;32;20406;-77
2020/12/09 14:05:02;;;;;;;2.78;0.70;;;;;;;;;;4369278;32;20063;-76
2020/12/09 14:07:30;;;;;;;7.05;0.88;;;;;;;;;;4358337;32;20052;-76
2020/12/09 14:09:58;;;;;;;3.90;1.15;;;;;;;;;;4355643;32;20113;-76
2020/12/09 14:12:27;;;;;;;3.53;1.15;;;;;;;;;;4358182;32;20056;-76
2020/12/09 14:14:55;;;;;;;2.22;0.55;;;;;;;;;;4364357;32;20070;-76
2020/12/09 14:17:24;;;;;;;2.35;1.25;;;;;;;;;;4366399;32;20707;-76
2020/12/09 14:19:54;;;;;;;0.98;0.60;;;;;;;;;;4365687;32;20488;-76
2020/12/09 14:22:24;;;;;;;9.98;1.35;;;;;;;;;;4365691;32;20055;-76
2020/12/09 14:24:53;;;;;;;5.60;1.33;;;;;;;;;;4353662;32;20062;-76
2020/12/09 14:27:42;;;;;;;1.25;0.80;;;;;;;;;;4367611;32;20107;-76
2020/12/09 14:30:11;;;;;;;4.37;0.98;;;;;;;;;;4365592;32;20085;-76
2020/12/09 14:32:39;;;;;;;2.25;0.80;;;;;;;;;;4369166;32;20117;-77
2020/12/09 14:35:08;;;;;;;2.97;1.00;;;;;;;;;;4368949;32;20105;-76
2020/12/09 14:37:37;;;;;;;1.27;0.37;;;;;;;;;;4364917;32;20401;-76
2020/12/09 14:40:05;;;;;;;1.67;0.40;;;;;;;;;;4361529;32;20097;-76
2020/12/09 14:42:34;;;;;;;3.72;0.82;;;;;;;;;;4362312;32;20058;-76
2020/12/09 14:45:03;;;;;;;3.12;0.88;;;;;;;;;;4363763;32;20085;-77
2020/12/09 14:47:32;;;;;;;7.37;0.95;;;;;;;;;;4365295;32;20087;-76
2020/12/09 14:50:00;;;;;;;5.25;1.20;;;;;;;;;;4362697;32;20475;-76
2020/12/09 14:52:30;;;;;;;2.47;0.98;;;;;;;;;;4362732;32;20119;-77
2020/12/09 14:54:59;;;;;;;1.55;0.50;;;;;;;;;;4362733;32;20894;-76
2020/12/09 14:57:28;;;;;;;3.10;1.15;;;;;;;;;;4346691;32;20067;-76
2020/12/09 14:59:57;;;;;;;1.52;0.60;;;;;;;;;;4361918;32;20493;-77